sensor_id;sensor_type;location;lat;lon;timestamp;P1;durP1;ratioP1;P2;durP2;ratioP2
47329;SDS011;33060;50.178;7.570;2024-03-25T00:02:13;6.65;;;1.40;;
47329;SDS011;33060;50.178;7.570;2024-03-25T00:04:39;4.35;;;1.50;;
47329;SDS011;33060;50.178;7.570;2024-03-25T00:07:05;5.10;;;1.30;;
47329;SDS011;33060;50.178;7.570;2024-03-25T00:09:30;7.82;;;1.95;;
47329;SDS011;33060;50.178;7.570;2024-03-25T00:11:56;4.90;;;1.48;;
47329;SDS011;33060;50.178;7.570;2024-03-25T00:14:22;6.10;;;1.40;;
47329;SDS011;33060;50.178;7.570;2024-03-25T00:16:48;5.15;;;1.60;;
47329;SDS011;33060;50.178;7.570;2024-03-25T00:19:14;5.70;;;1.38;;
47329;SDS011;33060;50.178;7.570;2024-03-25T00:21:40;4.57;;;1.65;;
47329;SDS011;33060;50.178;7.570;2024-03-25T00:24:07;6.97;;;1.45;;
47329;SDS011;33060;50.178;7.570;2024-03-25T00:26:33;5.07;;;1.35;;
47329;SDS011;33060;50.178;7.570;2024-03-25T00:28:59;5.22;;;1.33;;
47329;SDS011;33060;50.178;7.570;2024-03-25T00:31:25;5.22;;;1.63;;
47329;SDS011;33060;50.178;7.570;2024-03-25T00:33:50;7.47;;;2.03;;
47329;SDS011;33060;50.178;7.570;2024-03-25T00:36:16;7.78;;;1.73;;
47329;SDS011;33060;50.178;7.570;2024-03-25T00:38:43;5.32;;;1.70;;
47329;SDS011;33060;50.178;7.570;2024-03-25T00:41:09;9.38;;;2.28;;
47329;SDS011;33060;50.178;7.570;2024-03-25T00:43:35;6.78;;;1.92;;
47329;SDS011;33060;50.178;7.570;2024-03-25T00:46:00;6.90;;;1.60;;
47329;SDS011;33060;50.178;7.570;2024-03-25T00:48:26;6.07;;;1.38;;
47329;SDS011;33060;50.178;7.570;2024-03-25T00:50:52;5.72;;;1.52;;
47329;SDS011;33060;50.178;7.570;2024-03-25T00:53:18;6.75;;;1.40;;
47329;SDS011;33060;50.178;7.570;2024-03-25T00:55:44;6.88;;;1.70;;
47329;SDS011;33060;50.178;7.570;2024-03-25T00:58:10;5.78;;;1.60;;
47329;SDS011;33060;50.178;7.570;2024-03-25T01:00:36;6.82;;;1.80;;
47329;SDS011;33060;50.178;7.570;2024-03-25T01:03:01;5.85;;;1.75;;
47329;SDS011;33060;50.178;7.570;2024-03-25T01:05:27;5.50;;;1.58;;
47329;SDS011;33060;50.178;7.570;2024-03-25T01:07:53;6.20;;;2.38;;
47329;SDS011;33060;50.178;7.570;2024-03-25T01:10:19;4.35;;;1.42;;
47329;SDS011;33060;50.178;7.570;2024-03-25T01:12:45;4.50;;;1.27;;
47329;SDS011;33060;50.178;7.570;2024-03-25T01:15:10;5.38;;;1.38;;
47329;SDS011;33060;50.178;7.570;2024-03-25T01:17:37;9.40;;;1.95;;
47329;SDS011;33060;50.178;7.570;2024-03-25T01:20:03;8.63;;;1.60;;
47329;SDS011;33060;50.178;7.570;2024-03-25T01:22:32;7.20;;;1.55;;
47329;SDS011;33060;50.178;7.570;2024-03-25T01:24:57;6.15;;;1.80;;
47329;SDS011;33060;50.178;7.570;2024-03-25T01:27:23;4.43;;;1.52;;
47329;SDS011;33060;50.178;7.570;2024-03-25T01:29:49;4.65;;;1.73;;
47329;SDS011;33060;50.178;7.570;2024-03-25T01:32:15;5.85;;;1.63;;
47329;SDS011;33060;50.178;7.570;2024-03-25T01:34:40;5.97;;;1.83;;
47329;SDS011;33060;50.178;7.570;2024-03-25T01:37:06;7.30;;;1.70;;
47329;SDS011;33060;50.178;7.570;2024-03-25T01:39:32;5.82;;;1.40;;
47329;SDS011;33060;50.178;7.570;2024-03-25T01:41:58;5.47;;;1.85;;
47329;SDS011;33060;50.178;7.570;2024-03-25T01:44:24;8.05;;;2.20;;
47329;SDS011;33060;50.178;7.570;2024-03-25T01:46:50;5.30;;;1.85;;
47329;SDS011;33060;50.178;7.570;2024-03-25T01:49:17;6.75;;;1.83;;
47329;SDS011;33060;50.178;7.570;2024-03-25T01:51:45;7.63;;;2.10;;
47329;SDS011;33060;50.178;7.570;2024-03-25T01:54:11;5.60;;;2.00;;
47329;SDS011;33060;50.178;7.570;2024-03-25T01:56:41;8.48;;;1.75;;
47329;SDS011;33060;50.178;7.570;2024-03-25T01:59:09;6.15;;;1.35;;
47329;SDS011;33060;50.178;7.570;2024-03-25T02:01:36;5.18;;;1.98;;
47329;SDS011;33060;50.178;7.570;2024-03-25T02:04:02;7.13;;;2.03;;
47329;SDS011;33060;50.178;7.570;2024-03-25T02:06:28;4.43;;;1.92;;
47329;SDS011;33060;50.178;7.570;2024-03-25T02:08:56;4.85;;;1.95;;
47329;SDS011;33060;50.178;7.570;2024-03-25T02:11:22;6.07;;;1.92;;
47329;SDS011;33060;50.178;7.570;2024-03-25T02:13:50;7.38;;;2.10;;
47329;SDS011;33060;50.178;7.570;2024-03-25T02:16:16;5.75;;;2.28;;
47329;SDS011;33060;50.178;7.570;2024-03-25T02:18:41;7.05;;;1.95;;
47329;SDS011;33060;50.178;7.570;2024-03-25T02:21:07;5.60;;;2.03;;
47329;SDS011;33060;50.178;7.570;2024-03-25T02:23:33;7.75;;;1.90;;
47329;SDS011;33060;50.178;7.570;2024-03-25T02:26:02;4.45;;;1.70;;
47329;SDS011;33060;50.178;7.570;2024-03-25T02:28:28;10.23;;;2.20;;
47329;SDS011;33060;50.178;7.570;2024-03-25T02:30:54;8.35;;;2.58;;
47329;SDS011;33060;50.178;7.570;2024-03-25T02:33:19;8.07;;;1.95;;
47329;SDS011;33060;50.178;7.570;2024-03-25T02:35:45;8.85;;;2.90;;
47329;SDS011;33060;50.178;7.570;2024-03-25T02:38:11;8.88;;;2.50;;
47329;SDS011;33060;50.178;7.570;2024-03-25T02:40:37;9.10;;;2.15;;
47329;SDS011;33060;50.178;7.570;2024-03-25T02:43:03;8.10;;;1.92;;
47329;SDS011;33060;50.178;7.570;2024-03-25T02:45:29;7.93;;;3.08;;
47329;SDS011;33060;50.178;7.570;2024-03-25T02:47:55;8.88;;;2.10;;
47329;SDS011;33060;50.178;7.570;2024-03-25T02:50:20;6.95;;;2.53;;
47329;SDS011;33060;50.178;7.570;2024-03-25T02:52:47;6.53;;;1.92;;
47329;SDS011;33060;50.178;7.570;2024-03-25T02:55:13;7.60;;;2.10;;
47329;SDS011;33060;50.178;7.570;2024-03-25T02:57:39;6.53;;;1.98;;
47329;SDS011;33060;50.178;7.570;2024-03-25T03:00:04;7.85;;;2.50;;
47329;SDS011;33060;50.178;7.570;2024-03-25T03:02:31;8.27;;;2.60;;
47329;SDS011;33060;50.178;7.570;2024-03-25T03:04:56;7.38;;;2.33;;
47329;SDS011;33060;50.178;7.570;2024-03-25T03:07:22;7.00;;;2.10;;
47329;SDS011;33060;50.178;7.570;2024-03-25T03:09:48;7.28;;;2.17;;
47329;SDS011;33060;50.178;7.570;2024-03-25T03:12:14;8.93;;;2.38;;
47329;SDS011;33060;50.178;7.570;2024-03-25T03:14:40;5.82;;;2.00;;
47329;SDS011;33060;50.178;7.570;2024-03-25T03:17:06;8.07;;;2.00;;
47329;SDS011;33060;50.178;7.570;2024-03-25T03:19:31;8.30;;;2.35;;
47329;SDS011;33060;50.178;7.570;2024-03-25T03:21:57;6.75;;;2.30;;
47329;SDS011;33060;50.178;7.570;2024-03-25T03:24:23;9.00;;;2.60;;
47329;SDS011;33060;50.178;7.570;2024-03-25T03:26:49;8.00;;;2.50;;
47329;SDS011;33060;50.178;7.570;2024-03-25T03:29:15;8.65;;;2.15;;
47329;SDS011;33060;50.178;7.570;2024-03-25T03:31:41;5.10;;;2.25;;
47329;SDS011;33060;50.178;7.570;2024-03-25T03:34:07;7.90;;;2.28;;
47329;SDS011;33060;50.178;7.570;2024-03-25T03:36:33;8.27;;;2.55;;
47329;SDS011;33060;50.178;7.570;2024-03-25T03:38:58;6.63;;;2.10;;
47329;SDS011;33060;50.178;7.570;2024-03-25T03:41:24;7.05;;;2.45;;
47329;SDS011;33060;50.178;7.570;2024-03-25T03:43:50;8.43;;;2.97;;
47329;SDS011;33060;50.178;7.570;2024-03-25T03:46:15;6.97;;;2.33;;
47329;SDS011;33060;50.178;7.570;2024-03-25T03:48:41;8.13;;;2.10;;
47329;SDS011;33060;50.178;7.570;2024-03-25T03:51:07;6.70;;;1.98;;
47329;SDS011;33060;50.178;7.570;2024-03-25T03:53:34;11.02;;;2.38;;
47329;SDS011;33060;50.178;7.570;2024-03-25T03:56:01;7.30;;;1.95;;
47329;SDS011;33060;50.178;7.570;2024-03-25T03:58:30;5.97;;;2.22;;
47329;SDS011;33060;50.178;7.570;2024-03-25T04:00:56;7.55;;;1.88;;
47329;SDS011;33060;50.178;7.570;2024-03-25T04:03:22;7.00;;;1.85;;
47329;SDS011;33060;50.178;7.570;2024-03-25T04:05:48;10.02;;;2.15;;
47329;SDS011;33060;50.178;7.570;2024-03-25T04:08:24;7.07;;;2.22;;
47329;SDS011;33060;50.178;7.570;2024-03-25T04:10:50;6.03;;;2.08;;
47329;SDS011;33060;50.178;7.570;2024-03-25T04:13:16;6.93;;;2.00;;
47329;SDS011;33060;50.178;7.570;2024-03-25T04:15:42;6.30;;;2.20;;
47329;SDS011;33060;50.178;7.570;2024-03-25T04:18:08;6.68;;;2.00;;
47329;SDS011;33060;50.178;7.570;2024-03-25T04:20:40;7.55;;;1.77;;
47329;SDS011;33060;50.178;7.570;2024-03-25T04:23:07;6.72;;;2.30;;
47329;SDS011;33060;50.178;7.570;2024-03-25T04:25:36;9.95;;;3.30;;
47329;SDS011;33060;50.178;7.570;2024-03-25T04:28:05;6.90;;;2.13;;
47329;SDS011;33060;50.178;7.570;2024-03-25T04:30:32;5.90;;;1.67;;
47329;SDS011;33060;50.178;7.570;2024-03-25T04:35:24;7.80;;;1.98;;
47329;SDS011;33060;50.178;7.570;2024-03-25T04:37:50;6.65;;;1.73;;
47329;SDS011;33060;50.178;7.570;2024-03-25T04:40:16;6.20;;;1.73;;
47329;SDS011;33060;50.178;7.570;2024-03-25T04:42:44;5.47;;;1.80;;
47329;SDS011;33060;50.178;7.570;2024-03-25T04:45:10;7.28;;;1.88;;
47329;SDS011;33060;50.178;7.570;2024-03-25T04:47:37;6.38;;;2.00;;
47329;SDS011;33060;50.178;7.570;2024-03-25T04:50:03;5.68;;;1.70;;
47329;SDS011;33060;50.178;7.570;2024-03-25T04:52:30;8.35;;;1.83;;
47329;SDS011;33060;50.178;7.570;2024-03-25T04:54:56;6.22;;;1.75;;
47329;SDS011;33060;50.178;7.570;2024-03-25T04:57:22;5.47;;;1.67;;
47329;SDS011;33060;50.178;7.570;2024-03-25T04:59:48;7.22;;;2.03;;
47329;SDS011;33060;50.178;7.570;2024-03-25T05:02:14;7.20;;;2.10;;
47329;SDS011;33060;50.178;7.570;2024-03-25T05:04:40;7.38;;;1.65;;
47329;SDS011;33060;50.178;7.570;2024-03-25T05:07:06;5.93;;;1.58;;
47329;SDS011;33060;50.178;7.570;2024-03-25T05:09:31;6.15;;;1.70;;
47329;SDS011;33060;50.178;7.570;2024-03-25T05:11:57;5.72;;;1.70;;
47329;SDS011;33060;50.178;7.570;2024-03-25T05:14:23;6.43;;;1.63;;
47329;SDS011;33060;50.178;7.570;2024-03-25T05:16:49;6.22;;;1.67;;
47329;SDS011;33060;50.178;7.570;2024-03-25T05:19:17;6.45;;;1.83;;
47329;SDS011;33060;50.178;7.570;2024-03-25T05:21:44;5.47;;;1.30;;
47329;SDS011;33060;50.178;7.570;2024-03-25T05:24:10;6.45;;;2.00;;
47329;SDS011;33060;50.178;7.570;2024-03-25T05:26:35;5.18;;;1.77;;
47329;SDS011;33060;50.178;7.570;2024-03-25T05:29:01;7.15;;;1.75;;
47329;SDS011;33060;50.178;7.570;2024-03-25T05:31:27;7.97;;;1.58;;
47329;SDS011;33060;50.178;7.570;2024-03-25T05:33:53;5.55;;;2.00;;
47329;SDS011;33060;50.178;7.570;2024-03-25T05:36:20;6.55;;;1.83;;
47329;SDS011;33060;50.178;7.570;2024-03-25T05:38:45;10.70;;;2.05;;
47329;SDS011;33060;50.178;7.570;2024-03-25T05:41:11;6.72;;;1.88;;
47329;SDS011;33060;50.178;7.570;2024-03-25T05:43:37;5.72;;;1.40;;
47329;SDS011;33060;50.178;7.570;2024-03-25T05:46:03;6.90;;;2.00;;
47329;SDS011;33060;50.178;7.570;2024-03-25T05:48:29;9.50;;;2.10;;
47329;SDS011;33060;50.178;7.570;2024-03-25T05:53:30;7.97;;;2.25;;
47329;SDS011;33060;50.178;7.570;2024-03-25T05:55:57;6.80;;;2.00;;
47329;SDS011;33060;50.178;7.570;2024-03-25T05:58:25;7.10;;;1.52;;
47329;SDS011;33060;50.178;7.570;2024-03-25T06:00:52;6.50;;;1.65;;
47329;SDS011;33060;50.178;7.570;2024-03-25T06:03:21;6.93;;;1.48;;
47329;SDS011;33060;50.178;7.570;2024-03-25T06:05:47;7.13;;;1.80;;
47329;SDS011;33060;50.178;7.570;2024-03-25T06:08:13;8.07;;;1.92;;
47329;SDS011;33060;50.178;7.570;2024-03-25T06:10:51;7.07;;;1.95;;
47329;SDS011;33060;50.178;7.570;2024-03-25T06:13:17;4.18;;;1.67;;
47329;SDS011;33060;50.178;7.570;2024-03-25T06:15:43;6.78;;;1.95;;
47329;SDS011;33060;50.178;7.570;2024-03-25T06:18:09;5.80;;;1.60;;
47329;SDS011;33060;50.178;7.570;2024-03-25T06:20:34;4.65;;;1.42;;
47329;SDS011;33060;50.178;7.570;2024-03-25T06:23:00;5.32;;;1.45;;
47329;SDS011;33060;50.178;7.570;2024-03-25T06:25:26;10.02;;;2.25;;
47329;SDS011;33060;50.178;7.570;2024-03-25T06:27:53;5.53;;;1.75;;
47329;SDS011;33060;50.178;7.570;2024-03-25T06:30:19;9.65;;;1.88;;
47329;SDS011;33060;50.178;7.570;2024-03-25T06:33:04;7.70;;;2.13;;
47329;SDS011;33060;50.178;7.570;2024-03-25T06:35:48;10.27;;;2.10;;
47329;SDS011;33060;50.178;7.570;2024-03-25T06:38:14;5.93;;;2.13;;
47329;SDS011;33060;50.178;7.570;2024-03-25T06:40:39;9.02;;;2.30;;
47329;SDS011;33060;50.178;7.570;2024-03-25T06:43:05;7.07;;;2.50;;
47329;SDS011;33060;50.178;7.570;2024-03-25T06:45:31;6.25;;;1.63;;
47329;SDS011;33060;50.178;7.570;2024-03-25T06:47:57;7.97;;;2.70;;
47329;SDS011;33060;50.178;7.570;2024-03-25T06:50:23;8.68;;;3.78;;
47329;SDS011;33060;50.178;7.570;2024-03-25T06:52:49;11.25;;;4.45;;
47329;SDS011;33060;50.178;7.570;2024-03-25T06:55:15;10.25;;;4.18;;
47329;SDS011;33060;50.178;7.570;2024-03-25T06:57:41;9.98;;;5.20;;
47329;SDS011;33060;50.178;7.570;2024-03-25T07:00:07;10.23;;;4.85;;
47329;SDS011;33060;50.178;7.570;2024-03-25T07:02:38;8.63;;;3.45;;
47329;SDS011;33060;50.178;7.570;2024-03-25T07:05:05;7.68;;;3.08;;
47329;SDS011;33060;50.178;7.570;2024-03-25T07:07:31;9.10;;;2.88;;
47329;SDS011;33060;50.178;7.570;2024-03-25T07:09:56;10.88;;;2.78;;
47329;SDS011;33060;50.178;7.570;2024-03-25T07:12:22;8.55;;;3.10;;
47329;SDS011;33060;50.178;7.570;2024-03-25T07:14:48;10.43;;;3.65;;
47329;SDS011;33060;50.178;7.570;2024-03-25T07:17:15;6.55;;;2.83;;
47329;SDS011;33060;50.178;7.570;2024-03-25T07:19:40;9.52;;;3.85;;
47329;SDS011;33060;50.178;7.570;2024-03-25T07:22:06;9.45;;;3.88;;
47329;SDS011;33060;50.178;7.570;2024-03-25T07:24:32;9.93;;;3.78;;
47329;SDS011;33060;50.178;7.570;2024-03-25T07:26:58;11.55;;;4.88;;
47329;SDS011;33060;50.178;7.570;2024-03-25T07:29:24;8.15;;;3.55;;
47329;SDS011;33060;50.178;7.570;2024-03-25T07:31:49;8.45;;;3.78;;
47329;SDS011;33060;50.178;7.570;2024-03-25T07:34:15;8.32;;;2.85;;
47329;SDS011;33060;50.178;7.570;2024-03-25T07:36:41;8.80;;;3.20;;
47329;SDS011;33060;50.178;7.570;2024-03-25T07:39:07;7.22;;;3.45;;
47329;SDS011;33060;50.178;7.570;2024-03-25T07:41:36;7.80;;;3.67;;
47329;SDS011;33060;50.178;7.570;2024-03-25T07:44:05;7.80;;;3.70;;
47329;SDS011;33060;50.178;7.570;2024-03-25T07:46:31;7.88;;;3.78;;
47329;SDS011;33060;50.178;7.570;2024-03-25T07:48:56;8.98;;;3.55;;
47329;SDS011;33060;50.178;7.570;2024-03-25T07:51:22;10.40;;;4.57;;
47329;SDS011;33060;50.178;7.570;2024-03-25T07:53:48;9.02;;;5.07;;
47329;SDS011;33060;50.178;7.570;2024-03-25T07:56:17;9.90;;;4.28;;
47329;SDS011;33060;50.178;7.570;2024-03-25T07:58:43;10.63;;;3.40;;
47329;SDS011;33060;50.178;7.570;2024-03-25T08:01:09;13.27;;;3.95;;
47329;SDS011;33060;50.178;7.570;2024-03-25T08:03:34;9.65;;;4.03;;
47329;SDS011;33060;50.178;7.570;2024-03-25T08:06:00;9.57;;;4.82;;
47329;SDS011;33060;50.178;7.570;2024-03-25T08:08:26;9.05;;;3.45;;
47329;SDS011;33060;50.178;7.570;2024-03-25T08:10:51;12.23;;;4.28;;
47329;SDS011;33060;50.178;7.570;2024-03-25T08:13:21;9.40;;;2.97;;
47329;SDS011;33060;50.178;7.570;2024-03-25T08:15:47;9.07;;;3.17;;
47329;SDS011;33060;50.178;7.570;2024-03-25T08:18:12;8.98;;;3.13;;
47329;SDS011;33060;50.178;7.570;2024-03-25T08:20:38;8.50;;;3.50;;
47329;SDS011;33060;50.178;7.570;2024-03-25T08:23:04;8.43;;;3.15;;
47329;SDS011;33060;50.178;7.570;2024-03-25T08:25:32;9.48;;;3.50;;
47329;SDS011;33060;50.178;7.570;2024-03-25T08:27:58;7.15;;;3.28;;
47329;SDS011;33060;50.178;7.570;2024-03-25T08:30:24;7.90;;;2.83;;
47329;SDS011;33060;50.178;7.570;2024-03-25T08:32:50;5.57;;;2.58;;
47329;SDS011;33060;50.178;7.570;2024-03-25T08:35:16;10.07;;;3.25;;
47329;SDS011;33060;50.178;7.570;2024-03-25T08:37:42;10.13;;;3.17;;
47329;SDS011;33060;50.178;7.570;2024-03-25T08:40:08;9.05;;;2.40;;
47329;SDS011;33060;50.178;7.570;2024-03-25T08:42:34;8.15;;;3.33;;
47329;SDS011;33060;50.178;7.570;2024-03-25T08:45:00;6.10;;;3.42;;
47329;SDS011;33060;50.178;7.570;2024-03-25T08:47:26;8.43;;;2.45;;
47329;SDS011;33060;50.178;7.570;2024-03-25T08:49:52;7.22;;;2.53;;
47329;SDS011;33060;50.178;7.570;2024-03-25T08:52:17;6.88;;;2.20;;
47329;SDS011;33060;50.178;7.570;2024-03-25T08:54:43;7.45;;;2.80;;
47329;SDS011;33060;50.178;7.570;2024-03-25T08:57:09;6.65;;;2.63;;
47329;SDS011;33060;50.178;7.570;2024-03-25T08:59:35;7.03;;;2.45;;
47329;SDS011;33060;50.178;7.570;2024-03-25T09:02:01;6.05;;;1.90;;
47329;SDS011;33060;50.178;7.570;2024-03-25T09:04:26;8.77;;;2.08;;
47329;SDS011;33060;50.178;7.570;2024-03-25T09:06:52;7.63;;;2.22;;
47329;SDS011;33060;50.178;7.570;2024-03-25T09:09:18;5.88;;;1.88;;
47329;SDS011;33060;50.178;7.570;2024-03-25T09:12:02;5.53;;;2.50;;
47329;SDS011;33060;50.178;7.570;2024-03-25T09:14:28;4.43;;;1.85;;
47329;SDS011;33060;50.178;7.570;2024-03-25T09:16:54;3.92;;;1.40;;
47329;SDS011;33060;50.178;7.570;2024-03-25T09:19:20;5.78;;;1.73;;
47329;SDS011;33060;50.178;7.570;2024-03-25T09:21:45;5.38;;;1.33;;
47329;SDS011;33060;50.178;7.570;2024-03-25T09:24:11;3.85;;;1.20;;
47329;SDS011;33060;50.178;7.570;2024-03-25T09:26:37;7.28;;;1.35;;
47329;SDS011;33060;50.178;7.570;2024-03-25T09:29:02;4.32;;;1.27;;
47329;SDS011;33060;50.178;7.570;2024-03-25T09:31:28;3.00;;;0.88;;
47329;SDS011;33060;50.178;7.570;2024-03-25T09:33:54;5.13;;;1.33;;
47329;SDS011;33060;50.178;7.570;2024-03-25T09:36:20;6.07;;;1.13;;
47329;SDS011;33060;50.178;7.570;2024-03-25T09:38:47;2.97;;;1.17;;
47329;SDS011;33060;50.178;7.570;2024-03-25T09:41:13;3.17;;;1.35;;
47329;SDS011;33060;50.178;7.570;2024-03-25T09:46:16;3.83;;;1.20;;
47329;SDS011;33060;50.178;7.570;2024-03-25T09:48:42;6.70;;;1.25;;
47329;SDS011;33060;50.178;7.570;2024-03-25T09:51:11;2.78;;;0.93;;
47329;SDS011;33060;50.178;7.570;2024-03-25T09:53:37;6.45;;;1.30;;
47329;SDS011;33060;50.178;7.570;2024-03-25T09:56:03;2.85;;;0.85;;
47329;SDS011;33060;50.178;7.570;2024-03-25T09:58:29;4.53;;;0.82;;
47329;SDS011;33060;50.178;7.570;2024-03-25T10:00:57;5.15;;;1.38;;
47329;SDS011;33060;50.178;7.570;2024-03-25T10:03:23;5.18;;;1.48;;
47329;SDS011;33060;50.178;7.570;2024-03-25T10:05:49;5.10;;;1.25;;
47329;SDS011;33060;50.178;7.570;2024-03-25T10:08:21;5.15;;;1.20;;
47329;SDS011;33060;50.178;7.570;2024-03-25T10:10:47;5.05;;;1.17;;
47329;SDS011;33060;50.178;7.570;2024-03-25T10:13:15;5.55;;;1.40;;
47329;SDS011;33060;50.178;7.570;2024-03-25T10:15:43;5.10;;;1.08;;
47329;SDS011;33060;50.178;7.570;2024-03-25T10:18:12;3.78;;;1.30;;
47329;SDS011;33060;50.178;7.570;2024-03-25T10:20:37;5.15;;;1.33;;
47329;SDS011;33060;50.178;7.570;2024-03-25T10:23:03;3.13;;;1.33;;
47329;SDS011;33060;50.178;7.570;2024-03-25T10:25:30;4.78;;;1.52;;
47329;SDS011;33060;50.178;7.570;2024-03-25T10:28:00;4.93;;;1.40;;
47329;SDS011;33060;50.178;7.570;2024-03-25T10:30:27;3.13;;;1.10;;
47329;SDS011;33060;50.178;7.570;2024-03-25T10:33:00;4.70;;;1.30;;
47329;SDS011;33060;50.178;7.570;2024-03-25T10:35:27;3.53;;;1.38;;
47329;SDS011;33060;50.178;7.570;2024-03-25T10:37:55;3.53;;;1.13;;
47329;SDS011;33060;50.178;7.570;2024-03-25T10:40:27;5.20;;;1.30;;
47329;SDS011;33060;50.178;7.570;2024-03-25T10:42:56;4.90;;;1.33;;
47329;SDS011;33060;50.178;7.570;2024-03-25T10:45:28;4.07;;;1.42;;
47329;SDS011;33060;50.178;7.570;2024-03-25T10:47:58;5.45;;;2.25;;
47329;SDS011;33060;50.178;7.570;2024-03-25T10:50:30;5.15;;;1.38;;
47329;SDS011;33060;50.178;7.570;2024-03-25T10:52:57;3.17;;;1.33;;
47329;SDS011;33060;50.178;7.570;2024-03-25T10:55:26;3.17;;;1.17;;
47329;SDS011;33060;50.178;7.570;2024-03-25T10:57:53;4.82;;;1.67;;
47329;SDS011;33060;50.178;7.570;2024-03-25T11:00:22;3.83;;;1.33;;
47329;SDS011;33060;50.178;7.570;2024-03-25T11:02:48;4.53;;;1.40;;
47329;SDS011;33060;50.178;7.570;2024-03-25T11:05:15;6.13;;;2.45;;
47329;SDS011;33060;50.178;7.570;2024-03-25T11:07:41;3.67;;;1.13;;
47329;SDS011;33060;50.178;7.570;2024-03-25T11:10:09;3.72;;;1.30;;
47329;SDS011;33060;50.178;7.570;2024-03-25T11:12:35;6.28;;;2.33;;
47329;SDS011;33060;50.178;7.570;2024-03-25T11:15:03;6.30;;;1.70;;
47329;SDS011;33060;50.178;7.570;2024-03-25T11:17:30;4.75;;;1.38;;
47329;SDS011;33060;50.178;7.570;2024-03-25T11:20:09;3.53;;;1.50;;
47329;SDS011;33060;50.178;7.570;2024-03-25T11:22:46;5.22;;;1.23;;
47329;SDS011;33060;50.178;7.570;2024-03-25T11:25:15;3.75;;;1.48;;
47329;SDS011;33060;50.178;7.570;2024-03-25T11:30:08;3.47;;;1.42;;
47329;SDS011;33060;50.178;7.570;2024-03-25T11:32:54;4.65;;;1.27;;
47329;SDS011;33060;50.178;7.570;2024-03-25T11:35:20;4.93;;;1.13;;
47329;SDS011;33060;50.178;7.570;2024-03-25T11:37:48;3.97;;;1.10;;
47329;SDS011;33060;50.178;7.570;2024-03-25T11:40:15;2.55;;;0.98;;
47329;SDS011;33060;50.178;7.570;2024-03-25T11:42:41;4.10;;;1.35;;
47329;SDS011;33060;50.178;7.570;2024-03-25T11:45:14;3.97;;;0.95;;
47329;SDS011;33060;50.178;7.570;2024-03-25T11:47:44;2.95;;;0.90;;
47329;SDS011;33060;50.178;7.570;2024-03-25T11:50:18;5.28;;;0.98;;
47329;SDS011;33060;50.178;7.570;2024-03-25T11:52:44;4.22;;;1.50;;
47329;SDS011;33060;50.178;7.570;2024-03-25T11:55:10;2.78;;;1.50;;
47329;SDS011;33060;50.178;7.570;2024-03-25T11:57:40;3.78;;;1.38;;
47329;SDS011;33060;50.178;7.570;2024-03-25T12:00:07;4.25;;;1.30;;
47329;SDS011;33060;50.178;7.570;2024-03-25T12:02:39;4.25;;;1.40;;
47329;SDS011;33060;50.178;7.570;2024-03-25T12:05:08;3.63;;;0.80;;
47329;SDS011;33060;50.178;7.570;2024-03-25T12:07:34;4.45;;;0.82;;
47329;SDS011;33060;50.178;7.570;2024-03-25T12:10:01;2.92;;;0.70;;
47329;SDS011;33060;50.178;7.570;2024-03-25T12:12:46;3.42;;;1.00;;
47329;SDS011;33060;50.178;7.570;2024-03-25T12:15:12;3.97;;;1.10;;
47329;SDS011;33060;50.178;7.570;2024-03-25T12:17:38;4.32;;;1.25;;
47329;SDS011;33060;50.178;7.570;2024-03-25T12:20:07;3.22;;;0.95;;
47329;SDS011;33060;50.178;7.570;2024-03-25T12:22:34;2.35;;;0.57;;
47329;SDS011;33060;50.178;7.570;2024-03-25T12:25:04;2.45;;;0.80;;
47329;SDS011;33060;50.178;7.570;2024-03-25T12:27:34;2.40;;;0.90;;
47329;SDS011;33060;50.178;7.570;2024-03-25T12:30:02;4.47;;;0.95;;
47329;SDS011;33060;50.178;7.570;2024-03-25T12:32:31;4.68;;;1.25;;
47329;SDS011;33060;50.178;7.570;2024-03-25T12:35:07;3.75;;;1.30;;
47329;SDS011;33060;50.178;7.570;2024-03-25T12:37:34;2.50;;;0.63;;
47329;SDS011;33060;50.178;7.570;2024-03-25T12:39:59;3.08;;;0.95;;
47329;SDS011;33060;50.178;7.570;2024-03-25T12:42:26;2.92;;;0.63;;
47329;SDS011;33060;50.178;7.570;2024-03-25T12:44:55;4.35;;;0.93;;
47329;SDS011;33060;50.178;7.570;2024-03-25T12:47:21;3.65;;;0.93;;
47329;SDS011;33060;50.178;7.570;2024-03-25T12:49:46;3.00;;;0.93;;
47329;SDS011;33060;50.178;7.570;2024-03-25T12:52:12;2.70;;;0.90;;
47329;SDS011;33060;50.178;7.570;2024-03-25T12:54:38;2.92;;;1.00;;
47329;SDS011;33060;50.178;7.570;2024-03-25T12:59:30;4.32;;;0.80;;
47329;SDS011;33060;50.178;7.570;2024-03-25T13:01:56;4.55;;;0.90;;
47329;SDS011;33060;50.178;7.570;2024-03-25T13:04:22;5.63;;;1.10;;
47329;SDS011;33060;50.178;7.570;2024-03-25T13:06:47;2.88;;;1.08;;
47329;SDS011;33060;50.178;7.570;2024-03-25T13:09:13;3.33;;;0.90;;
47329;SDS011;33060;50.178;7.570;2024-03-25T13:11:39;2.47;;;0.77;;
47329;SDS011;33060;50.178;7.570;2024-03-25T13:14:04;3.75;;;0.80;;
47329;SDS011;33060;50.178;7.570;2024-03-25T13:16:33;3.42;;;1.40;;
47329;SDS011;33060;50.178;7.570;2024-03-25T13:18:59;1.70;;;0.65;;
47329;SDS011;33060;50.178;7.570;2024-03-25T13:21:25;3.10;;;1.40;;
47329;SDS011;33060;50.178;7.570;2024-03-25T13:23:54;5.50;;;1.15;;
47329;SDS011;33060;50.178;7.570;2024-03-25T13:26:19;3.83;;;0.73;;
47329;SDS011;33060;50.178;7.570;2024-03-25T13:28:45;4.38;;;1.00;;
47329;SDS011;33060;50.178;7.570;2024-03-25T13:31:11;3.30;;;1.10;;
47329;SDS011;33060;50.178;7.570;2024-03-25T13:33:38;3.20;;;0.70;;
47329;SDS011;33060;50.178;7.570;2024-03-25T13:36:04;3.15;;;0.90;;
47329;SDS011;33060;50.178;7.570;2024-03-25T13:38:31;4.18;;;0.68;;
47329;SDS011;33060;50.178;7.570;2024-03-25T13:40:58;3.15;;;0.88;;
47329;SDS011;33060;50.178;7.570;2024-03-25T13:43:25;3.33;;;1.00;;
47329;SDS011;33060;50.178;7.570;2024-03-25T13:45:51;4.63;;;1.05;;
47329;SDS011;33060;50.178;7.570;2024-03-25T13:48:16;5.47;;;1.00;;
47329;SDS011;33060;50.178;7.570;2024-03-25T13:50:42;2.15;;;0.63;;
47329;SDS011;33060;50.178;7.570;2024-03-25T13:53:13;3.47;;;1.10;;
47329;SDS011;33060;50.178;7.570;2024-03-25T13:55:39;3.75;;;0.82;;
47329;SDS011;33060;50.178;7.570;2024-03-25T13:58:05;2.80;;;0.60;;
47329;SDS011;33060;50.178;7.570;2024-03-25T14:02:59;3.67;;;0.60;;
47329;SDS011;33060;50.178;7.570;2024-03-25T14:05:31;3.25;;;1.05;;
47329;SDS011;33060;50.178;7.570;2024-03-25T14:08:08;3.05;;;0.70;;
47329;SDS011;33060;50.178;7.570;2024-03-25T14:10:35;1.98;;;0.60;;
47329;SDS011;33060;50.178;7.570;2024-03-25T14:13:00;3.47;;;0.65;;
47329;SDS011;33060;50.178;7.570;2024-03-25T14:15:26;2.97;;;0.50;;
47329;SDS011;33060;50.178;7.570;2024-03-25T14:17:52;1.95;;;0.55;;
47329;SDS011;33060;50.178;7.570;2024-03-25T14:20:18;2.47;;;0.65;;
47329;SDS011;33060;50.178;7.570;2024-03-25T14:22:43;2.95;;;0.60;;
47329;SDS011;33060;50.178;7.570;2024-03-25T14:25:12;1.98;;;0.75;;
47329;SDS011;33060;50.178;7.570;2024-03-25T14:27:38;2.55;;;0.77;;
47329;SDS011;33060;50.178;7.570;2024-03-25T14:30:04;2.50;;;0.55;;
47329;SDS011;33060;50.178;7.570;2024-03-25T14:32:31;2.92;;;0.95;;
47329;SDS011;33060;50.178;7.570;2024-03-25T14:34:57;2.30;;;0.32;;
47329;SDS011;33060;50.178;7.570;2024-03-25T14:37:24;2.03;;;0.30;;
47329;SDS011;33060;50.178;7.570;2024-03-25T14:39:49;2.47;;;0.70;;
47329;SDS011;33060;50.178;7.570;2024-03-25T14:42:15;2.25;;;0.70;;
47329;SDS011;33060;50.178;7.570;2024-03-25T14:44:41;3.42;;;0.60;;
47329;SDS011;33060;50.178;7.570;2024-03-25T14:47:06;3.40;;;0.80;;
47329;SDS011;33060;50.178;7.570;2024-03-25T14:49:32;4.13;;;0.88;;
47329;SDS011;33060;50.178;7.570;2024-03-25T14:51:58;4.28;;;1.05;;
47329;SDS011;33060;50.178;7.570;2024-03-25T14:54:23;3.97;;;0.93;;
47329;SDS011;33060;50.178;7.570;2024-03-25T14:56:58;2.75;;;0.65;;
47329;SDS011;33060;50.178;7.570;2024-03-25T14:59:26;4.10;;;1.00;;
47329;SDS011;33060;50.178;7.570;2024-03-25T15:01:53;5.30;;;1.02;;